Time;durP1;ratioP1;P1;durP2;ratioP2;P2;SDS_P1;SDS_P2;PMS_P1;PMS_P2;Temp;Humidity;BMP_temperature;BMP_pressure;BME280_temperature;BME280_humidity;BME280_pressure;Samples;Min_cycle;Max_cycle;Signal;HPM_P1;HPM_P2
2022/09/19 00:01:12;;;;;;;8.60;2.00;;;;;;;22.31;66.80;100671.50;2043146;29;20553;-76
2022/09/19 00:02:34;;;;;;;8.40;2.40;;;;;;;22.34;66.70;100671.38;2036926;29;20040;-76
2022/09/19 00:03:57;;;;;;;7.82;1.92;;;;;;;22.41;66.51;100668.41;2044526;29;20427;-76
2022/09/19 00:05:20;;;;;;;11.02;2.60;;;;;;;22.47;66.30;100661.94;2044721;29;20055;-76
2022/09/19 00:06:43;;;;;;;6.70;2.50;;;;;;;22.51;66.20;100653.69;2044427;29;20475;-76
2022/09/19 00:08:04;;;;;;;7.15;2.38;;;;;;;22.55;65.95;100665.25;2047063;29;20091;-76
2022/09/19 00:09:30;;;;;;;5.55;2.28;;;;;;;22.55;65.81;100659.88;2044636;29;20055;-76
2022/09/19 00:10:51;;;;;;;8.55;1.98;;;;;;;22.52;65.70;100654.56;2044951;29;20043;-76
2022/09/19 00:12:14;;;;;;;9.68;2.40;;;;;;;22.49;65.68;100658.28;2044849;29;20471;-76
2022/09/19 00:13:45;;;;;;;5.43;1.80;;;;;;;22.50;65.61;100659.16;2044696;29;20120;-76
2022/09/19 00:15:08;;;;;;;7.25;2.15;;;;;;;22.48;65.64;100661.88;2045572;29;20067;-76
2022/09/19 00:16:32;;;;;;;7.63;2.10;;;;;;;22.49;65.54;100660.97;2036808;29;20099;-76
2022/09/19 00:17:55;;;;;;;12.52;3.17;;;;;;;22.49;65.25;100657.38;2050626;28;20051;-77
2022/09/19 00:19:17;;;;;;;8.85;2.40;;;;;;;22.49;64.97;100652.91;2046904;29;20097;-75
2022/09/19 00:20:41;;;;;;;6.85;2.15;;;;;;;22.45;64.96;100651.22;2047179;29;20059;-75
2022/09/19 00:22:04;;;;;;;8.10;2.30;;;;;;;22.41;64.93;100644.19;2029101;29;20052;-75
2022/09/19 00:25:06;;;;;;;10.60;1.80;;;;;;;22.35;64.88;100643.53;2046825;29;20166;-76
2022/09/19 00:26:29;;;;;;;6.70;1.90;;;;;;;22.31;64.73;100639.22;2039126;29;20189;-76
2022/09/19 00:27:51;;;;;;;7.88;2.47;;;;;;;22.25;64.54;100640.31;2042373;29;20053;-76
2022/09/19 00:29:16;;;;;;;9.70;2.40;;;;;;;;;;2036581;29;20055;-76
2022/09/19 00:30:40;;;;;;;7.82;2.00;;;;;;;22.12;64.85;100645.19;2042529;29;20097;-76
2022/09/19 00:32:07;;;;;;;5.85;2.05;;;;;;;22.09;65.05;100647.13;2029299;29;20044;-76
2022/09/19 00:33:30;;;;;;;9.95;2.20;;;;;;;22.06;65.12;100653.47;2033202;29;20056;-76
2022/09/19 00:34:55;;;;;;;4.15;1.92;;;;;;;22.06;65.21;100657.97;2034642;29;20048;-76
2022/09/19 00:36:18;;;;;;;7.20;2.05;;;;;;;22.05;65.25;100654.41;2044981;29;20451;-76
2022/09/19 00:37:40;;;;;;;6.32;2.00;;;;;;;22.04;65.10;100655.34;2036498;29;20051;-76
2022/09/19 00:39:04;;;;;;;5.97;2.00;;;;;;;22.02;65.32;100654.50;2044631;29;20193;-76
2022/09/19 00:40:25;;;;;;;6.30;2.05;;;;;;;21.99;65.35;100646.53;2039140;29;20047;-76
2022/09/19 00:41:48;;;;;;;7.60;1.80;;;;;;;21.99;65.30;100648.38;2044498;28;20071;-77
2022/09/19 00:43:12;;;;;;;7.78;2.15;;;;;;;22.01;65.68;100647.38;2038372;29;20496;-76
2022/09/19 00:44:58;;;;;;;5.18;2.35;;;;;;;22.04;65.48;100652.66;2046486;29;20043;-76
2022/09/19 00:46:22;;;;;;;5.85;2.05;;;;;;;22.07;65.49;100648.97;2040413;29;20371;-76
2022/09/19 00:47:47;;;;;;;8.20;2.03;;;;;;;22.09;65.27;100645.31;2038156;29;20071;-76
2022/09/19 00:49:14;;;;;;;7.53;2.13;;;;;;;22.12;65.09;100641.66;2044407;29;20095;-76
2022/09/19 00:50:36;;;;;;;6.10;2.42;;;;;;;22.14;64.80;100639.75;2046686;29;20047;-76
2022/09/19 00:52:03;;;;;;;7.88;2.13;;;;;;;22.20;64.56;100643.13;2045974;29;20403;-76
2022/09/19 00:53:24;;;;;;;4.25;1.83;;;;;;;22.24;64.21;100646.59;2046596;29;20043;-77
2022/09/19 00:54:49;;;;;;;9.07;2.05;;;;;;;22.27;64.12;100649.19;2037658;29;20063;-76
2022/09/19 00:56:15;;;;;;;8.30;1.92;;;;;;;22.26;63.96;100650.97;2044163;29;20121;-77
2022/09/19 00:57:47;;;;;;;9.23;1.88;;;;;;;22.25;63.80;100657.28;2040805;29;20664;-76
2022/09/19 00:59:11;;;;;;;5.18;2.13;;;;;;;22.18;63.69;100666.53;2045944;29;20154;-76
2022/09/19 01:00:34;;;;;;;7.53;2.15;;;;;;;22.12;63.90;100664.00;2046149;29;20063;-75
2022/09/19 01:01:59;;;;;;;12.63;2.53;;;;;;;22.08;64.16;100662.38;2037698;29;20043;-75
2022/09/19 01:03:24;;;;;;;8.07;2.20;;;;;;;22.05;64.12;100664.28;2036180;29;20068;-75
2022/09/19 01:04:46;;;;;;;7.13;2.25;;;;;;;22.00;64.32;100669.81;2044361;29;20376;-75
2022/09/19 01:06:26;;;;;;;12.23;2.92;;;;;;;21.95;64.50;100663.66;2037900;29;20040;-75
2022/09/19 01:08:05;;;;;;;4.72;1.98;;;;;;;21.92;64.65;100668.28;2048223;29;20036;-76
2022/09/19 01:09:38;;;;;;;6.63;2.20;;;;;;;21.86;64.80;100656.78;2047996;29;20145;-76
2022/09/19 01:11:24;;;;;;;8.73;1.85;;;;;;;21.82;65.00;100663.19;2039312;29;20036;-76
2022/09/19 01:12:55;;;;;;;6.47;2.10;;;;;;;21.80;65.13;100659.66;2048503;29;20055;-76
2022/09/19 01:14:28;;;;;;;4.97;1.83;;;;;;;21.84;65.03;100657.78;2046863;29;20039;-76
2022/09/19 01:16:01;;;;;;;9.98;2.50;;;;;;;21.89;64.69;100663.88;2038907;29;20078;-77
2022/09/19 01:17:28;;;;;;;7.82;2.00;;;;;;;21.92;64.63;100657.53;2045916;29;20055;-76
2022/09/19 01:19:05;;;;;;;7.47;2.13;;;;;;;21.94;64.31;100658.34;2038475;29;20056;-77
2022/09/19 01:20:57;;;;;;;6.00;1.83;;;;;;;21.90;64.29;100646.81;2039387;29;20848;-77
2022/09/19 01:22:30;;;;;;;5.93;1.92;;;;;;;21.98;64.17;100634.03;2048556;28;20420;-76
2022/09/19 01:24:19;;;;;;;8.48;1.67;;;;;;;22.06;63.74;100623.00;2047358;29;20496;-76
2022/09/19 01:25:49;;;;;;;11.80;1.98;;;;;;;22.11;63.49;100627.31;2048351;29;20051;-77
2022/09/19 01:27:35;;;;;;;6.53;2.00;;;;;;;22.12;63.15;100637.13;2039034;29;20143;-77
2022/09/19 01:29:00;;;;;;;8.80;2.20;;;;;;;22.07;63.04;100649.84;2048433;29;20503;-77
2022/09/19 01:30:24;;;;;;;7.32;2.38;;;;;;;22.02;62.94;100659.00;2038295;29;20511;-76
2022/09/19 01:31:49;;;;;;;10.55;2.33;;;;;;;21.90;63.18;100664.75;2043597;29;20623;-76
2022/09/19 01:33:18;;;;;;;8.20;2.35;;;;;;;21.80;63.39;100681.16;2046225;29;20051;-77
2022/09/19 01:34:49;;;;;;;5.80;1.77;;;;;;;21.73;63.80;100678.72;2039296;29;20073;-76
2022/09/19 01:36:14;;;;;;;6.35;1.77;;;;;;;21.68;63.93;100676.19;2046156;29;20067;-76
2022/09/19 01:37:44;;;;;;;8.23;2.13;;;;;;;21.69;64.12;100677.94;2038238;29;20168;-77
2022/09/19 01:39:09;;;;;;;6.57;1.65;;;;;;;21.70;64.21;100671.66;2053056;28;20047;-76
2022/09/19 01:40:38;;;;;;;7.75;1.73;;;;;;;21.74;64.14;100665.25;2040276;29;20115;-75
2022/09/19 01:42:05;;;;;;;5.95;2.17;;;;;;;21.79;63.84;100659.75;2036352;29;20138;-75
2022/09/19 01:43:26;;;;;;;7.88;1.88;;;;;;;21.86;63.62;100662.16;2044006;29;20094;-75
2022/09/19 01:44:52;;;;;;;7.50;1.95;;;;;;;21.91;63.48;100662.03;2037239;29;20051;-75
2022/09/19 01:46:23;;;;;;;5.40;2.50;;;;;;;21.95;63.31;100666.34;2044028;29;20462;-76
2022/09/19 01:48:00;;;;;;;5.45;2.00;;;;;;;21.96;63.19;100670.84;2040362;29;20583;-76
2022/09/19 01:49:37;;;;;;;4.68;2.28;;;;;;;21.92;63.08;100676.34;2039088;29;20066;-76
2022/09/19 01:51:16;;;;;;;9.52;2.58;;;;;;;21.75;63.27;100684.94;2054238;28;20035;-75
2022/09/19 01:52:55;;;;;;;5.50;1.77;;;;;;;21.63;63.65;100682.63;2040240;29;20053;-76
2022/09/19 01:54:43;;;;;;;9.95;1.75;;;;;;;21.63;63.74;100680.81;2032032;29;20040;-76
2022/09/19 01:56:12;;;;;;;8.63;1.90;;;;;;;21.65;63.55;100675.41;2046737;29;20571;-76
2022/09/19 01:57:48;;;;;;;9.20;2.22;;;;;;;21.69;63.50;100677.06;2038037;29;20047;-76
2022/09/19 01:59:24;;;;;;;10.05;2.50;;;;;;;21.73;63.38;100681.41;2039640;29;20115;-76
2022/09/19 02:00:55;;;;;;;5.60;1.73;;;;;;;21.75;63.12;100682.25;2046315;29;20043;-76
2022/09/19 02:02:28;;;;;;;8.57;1.90;;;;;;;21.77;62.90;100675.03;2040102;29;20047;-77
2022/09/19 02:03:56;;;;;;;4.97;2.10;;;;;;;21.77;62.95;100675.03;2046872;29;20047;-76
2022/09/19 02:05:27;;;;;;;7.60;2.10;;;;;;;21.75;62.85;100671.50;2039852;29;20059;-76
2022/09/19 02:06:53;;;;;;;7.95;2.72;;;;;;;21.71;62.97;100672.53;2037914;29;20082;-76
2022/09/19 02:08:21;;;;;;;9.10;2.00;;;;;;;21.69;63.00;100680.63;2036081;29;20075;-76
2022/09/19 02:09:51;;;;;;;11.57;2.38;;;;;;;21.66;63.13;100677.19;2036800;29;20048;-76
2022/09/19 02:11:18;;;;;;;7.07;1.92;;;;;;;21.64;63.18;100687.09;2038679;29;20060;-75
2022/09/19 02:12:42;;;;;;;4.78;1.83;;;;;;;21.60;63.33;100688.97;2038523;29;20146;-74
2022/09/19 02:14:21;;;;;;;7.93;2.38;;;;;;;21.59;63.25;100689.94;2047311;29;20040;-76
2022/09/19 02:15:57;;;;;;;9.25;2.20;;;;;;;21.59;63.42;100687.25;2039050;29;20069;-76
2022/09/19 02:17:24;;;;;;;9.02;2.22;;;;;;;21.58;63.44;100685.47;2052829;28;20121;-75
2022/09/19 02:18:54;;;;;;;6.50;1.85;;;;;;;21.59;63.37;100691.72;2039940;29;20052;-75
2022/09/19 02:20:21;;;;;;;6.85;1.98;;;;;;;21.57;63.39;100682.81;2038743;29;20078;-77
2022/09/19 02:21:48;;;;;;;7.18;1.65;;;;;;;21.50;63.48;100679.44;2044210;29;20047;-77
2022/09/19 02:23:20;;;;;;;4.63;1.83;;;;;;;21.48;63.55;100676.81;2046147;29;20067;-76
2022/09/19 02:24:45;;;;;;;7.43;2.22;;;;;;;21.43;63.61;100670.69;2047906;28;20388;-76
2022/09/19 02:26:09;;;;;;;6.57;1.88;;;;;;;21.42;63.54;100665.38;2031860;29;20631;-76
2022/09/19 02:27:42;;;;;;;7.45;2.63;;;;;;;21.41;63.46;100669.84;2043055;29;20439;-77
2022/09/19 02:29:10;;;;;;;7.68;2.10;;;;;;;21.32;63.35;100678.22;2047859;29;20074;-75
2022/09/19 02:30:32;;;;;;;6.60;2.80;;;;;;;21.19;63.52;100676.81;2041841;28;20048;-75
2022/09/19 02:31:57;;;;;;;6.50;2.25;;;;;;;21.09;63.73;100683.31;2043047;29;20401;-76
2022/09/19 02:33:18;;;;;;;5.07;1.70;;;;;;;21.01;63.82;100691.59;2045352;29;20617;-76
2022/09/19 02:34:41;;;;;;;7.53;2.35;;;;;;;20.97;63.98;100689.03;2047759;28;20051;-75
2022/09/19 02:36:13;;;;;;;7.47;2.03;;;;;;;20.96;64.21;100681.91;2037383;29;20075;-75
2022/09/19 02:37:42;;;;;;;8.32;2.20;;;;;;;20.92;64.29;100688.31;2046697;29;20039;-75
2022/09/19 02:39:12;;;;;;;6.35;2.22;;;;;;;20.94;64.47;100689.13;2039786;29;20420;-76
2022/09/19 02:40:57;;;;;;;10.02;2.30;;;;;;;20.95;64.44;100682.81;2039855;29;20087;-76
2022/09/19 02:42:30;;;;;;;8.52;2.17;;;;;;;20.97;64.41;100686.34;2046681;29;20047;-75
2022/09/19 02:44:00;;;;;;;5.72;2.17;;;;;;;20.97;64.41;100686.34;2038260;29;20690;-76
2022/09/19 02:45:28;;;;;;;4.53;1.83;;;;;;;20.92;64.40;100677.56;2038283;29;20081;-76
2022/09/19 02:47:02;;;;;;;;;;;;;;;20.80;64.69;100681.47;2038972;29;20054;-75
2022/09/19 02:48:32;;;;;;;8.73;2.40;;;;;;;20.72;64.93;100672.75;2038438;29;19927;-76
2022/09/19 02:49:59;;;;;;;7.35;2.13;;;;;;;20.73;64.90;100670.94;2036355;29;20050;-76
2022/09/19 02:51:26;;;;;;;6.85;2.22;;;;;;;20.74;64.96;100683.44;2043755;29;20051;-75
2022/09/19 02:52:52;;;;;;;9.70;2.30;;;;;;;20.75;64.85;100680.69;2038252;29;20056;-76
2022/09/19 02:54:22;;;;;;;6.97;2.63;;;;;;;20.74;64.82;100686.13;2035905;29;20150;-76
2022/09/19 02:55:49;;;;;;;7.25;2.40;;;;;;;20.68;65.05;100695.19;2043925;29;20113;-76
2022/09/19 02:57:16;;;;;;;8.13;2.40;;;;;;;20.63;65.09;100689.97;2045745;29;20714;-76
2022/09/19 02:58:43;;;;;;;9.00;2.22;;;;;;;20.59;65.12;100691.00;2037898;29;20110;-76
2022/09/19 03:00:06;;;;;;;5.90;2.00;;;;;;;20.57;65.26;100684.78;2035942;29;20507;-76
2022/09/19 03:01:37;;;;;;;9.02;1.83;;;;;;;20.58;65.40;100685.66;2035834;29;20059;-76
2022/09/19 03:04:11;;;;;;;8.05;2.08;;;;;;;20.60;65.36;100684.72;2043833;29;20396;-75
2022/09/19 03:04:55;;;;;;;5.68;2.08;;;;;;;20.64;65.37;100688.16;2039798;29;20051;-76
2022/09/19 03:06:20;;;;;;;8.48;2.40;;;;;;;20.63;65.02;100692.66;2043745;29;20047;-76
2022/09/19 03:07:48;;;;;;;13.60;3.58;;;;;;;20.61;64.93;100690.94;2037819;29;20146;-75
2022/09/19 03:09:15;;;;;;;9.82;2.50;;;;;;;20.60;65.23;100695.44;2044490;29;20074;-75
2022/09/19 03:10:48;;;;;;;7.28;2.00;;;;;;;20.58;65.11;100694.59;2037869;29;20135;-75
2022/09/19 03:12:37;;;;;;;6.85;2.95;;;;;;;20.53;65.38;100693.84;2039707;29;20058;-75
2022/09/19 03:14:00;;;;;;;5.93;2.22;;;;;;;20.48;65.52;100685.00;2037832;29;20075;-76
2022/09/19 03:15:28;;;;;;;6.88;2.00;;;;;;;20.43;65.63;100688.72;2044883;29;20047;-75
2022/09/19 03:16:56;;;;;;;8.18;2.38;;;;;;;20.35;65.98;100693.44;2037868;29;20539;-75
2022/09/19 03:18:23;;;;;;;6.50;2.20;;;;;;;20.28;66.17;100693.53;2037871;29;20036;-75
2022/09/19 03:19:46;;;;;;;10.27;2.47;;;;;;;20.27;66.09;100697.16;2035469;29;20051;-77
2022/09/19 03:21:12;;;;;;;8.93;2.53;;;;;;;20.27;66.01;100699.84;2043355;29;20047;-76
2022/09/19 03:22:36;;;;;;;5.05;2.30;;;;;;;20.26;65.94;100691.81;2039277;29;20059;-76
2022/09/19 03:23:58;;;;;;;7.65;2.60;;;;;;;20.25;65.99;100698.97;2034606;29;20043;-76
2022/09/19 03:25:26;;;;;;;8.40;2.35;;;;;;;20.25;65.94;100701.66;2035062;29;20881;-75
2022/09/19 03:26:49;;;;;;;7.35;2.47;;;;;;;20.28;66.03;100700.72;2037608;29;20495;-76
2022/09/19 03:28:11;;;;;;;;;;;;;;;20.27;66.07;100701.63;2035215;29;20519;-75
2022/09/19 03:29:34;;;;;;;9.70;2.97;;;;;;;20.29;66.11;100697.09;2034205;29;19922;-75
2022/09/19 03:30:59;;;;;;;8.13;2.30;;;;;;;20.31;66.00;100692.56;2034555;29;20067;-76
2022/09/19 03:32:25;;;;;;;8.05;2.40;;;;;;;20.34;65.79;100692.56;2035517;29;20055;-75
2022/09/19 03:33:48;;;;;;;6.35;2.33;;;;;;;20.38;65.93;100683.50;2037191;29;20404;-76
2022/09/19 03:35:11;;;;;;;9.15;2.65;;;;;;;20.41;65.91;100686.13;2037026;29;20047;-75
2022/09/19 03:36:35;;;;;;;8.43;2.60;;;;;;;20.42;65.85;100689.66;2034258;29;20064;-75
2022/09/19 03:37:57;;;;;;;9.75;2.22;;;;;;;20.35;65.58;100694.28;2027063;29;20054;-76
2022/09/19 03:39:20;;;;;;;7.13;2.58;;;;;;;20.26;65.62;100703.44;2032270;29;20146;-75
2022/09/19 03:40:45;;;;;;;8.75;3.15;;;;;;;20.18;65.76;100709.88;2037379;29;20051;-75
2022/09/19 03:42:06;;;;;;;8.07;2.45;;;;;;;20.14;65.98;100709.09;2042249;29;20051;-76
2022/09/19 03:43:30;;;;;;;12.20;2.95;;;;;;;20.14;65.94;100717.13;2036402;29;20483;-75
2022/09/19 03:44:53;;;;;;;7.22;2.42;;;;;;;20.15;65.87;100716.19;2042591;29;20066;-76
2022/09/19 03:46:17;;;;;;;9.50;2.10;;;;;;;20.17;66.06;100713.47;2036732;29;20074;-76
2022/09/19 03:47:42;;;;;;;6.50;1.88;;;;;;;20.19;66.23;100703.63;2037152;29;20123;-75
2022/09/19 03:49:05;;;;;;;7.13;2.08;;;;;;;20.24;66.26;100704.38;2034608;29;20527;-76
2022/09/19 03:50:27;;;;;;;7.68;2.28;;;;;;;20.27;66.13;100707.88;2034153;29;20054;-76
2022/09/19 03:52:01;;;;;;;6.65;2.10;;;;;;;20.29;66.23;100705.13;2045227;29;20138;-75
2022/09/19 03:53:23;;;;;;;20.98;3.70;;;;;;;20.30;66.09;100701.53;2036975;29;20456;-76
2022/09/19 03:54:46;;;;;;;9.80;2.28;;;;;;;20.28;65.97;100711.44;2044793;29;20063;-76
2022/09/19 03:56:09;;;;;;;5.18;2.10;;;;;;;20.25;66.11;100715.06;2036996;29;20504;-76
2022/09/19 03:57:31;;;;;;;7.72;2.17;;;;;;;20.21;66.02;100705.34;2034740;29;20613;-76
2022/09/19 03:58:54;;;;;;;6.65;2.30;;;;;;;20.20;66.05;100706.25;2042168;29;20054;-76
2022/09/19 04:00:15;;;;;;;9.07;2.30;;;;;;;20.20;66.06;100713.44;2036718;29;20047;-76
2022/09/19 04:01:41;;;;;;;9.52;3.05;;;;;;;20.16;65.95;100717.97;2037407;29;20054;-75
2022/09/19 04:03:03;;;;;;;9.32;2.35;;;;;;;20.16;66.17;100711.72;2036901;29;20039;-76
2022/09/19 04:04:28;;;;;;;8.90;2.00;;;;;;;20.14;66.20;100722.50;2034031;29;20040;-76
2022/09/19 04:05:51;;;;;;;6.07;2.60;;;;;;;20.14;66.50;100713.56;2037318;29;20047;-75
2022/09/19 04:07:17;;;;;;;6.32;2.13;;;;;;;20.15;66.45;100716.19;2036920;29;20147;-75
2022/09/19 04:08:39;;;;;;;8.10;2.00;;;;;;;20.16;66.80;100714.41;2036662;29;20067;-75
2022/09/19 04:10:01;;;;;;;6.38;2.30;;;;;;;20.18;66.87;100715.25;2036870;29;20044;-76
2022/09/19 04:11:24;;;;;;;7.95;2.15;;;;;;;20.20;66.78;100714.31;2034389;29;20052;-75
2022/09/19 04:12:48;;;;;;;8.57;2.92;;;;;;;20.20;66.50;100718.78;2036552;29;20047;-76
2022/09/19 04:14:12;;;;;;;12.10;2.60;;;;;;;20.18;66.40;100720.63;2035021;29;20056;-76
2022/09/19 04:15:35;;;;;;;11.02;2.80;;;;;;;20.18;66.61;100717.94;2042386;29;20110;-76
2022/09/19 04:17:00;;;;;;;8.18;2.53;;;;;;;20.20;66.51;100726.81;2036476;29;20070;-76
2022/09/19 04:18:23;;;;;;;8.20;2.25;;;;;;;20.21;66.78;100718.75;2036383;29;20066;-76
2022/09/19 04:19:48;;;;;;;8.05;2.13;;;;;;;20.24;66.50;100717.78;2036560;29;20043;-75
2022/09/19 04:21:18;;;;;;;9.10;2.30;;;;;;;20.26;66.79;100718.63;2046052;29;20180;-76
2022/09/19 04:22:44;;;;;;;6.32;2.65;;;;;;;20.28;66.55;100717.66;2037123;29;20047;-75
2022/09/19 04:24:32;;;;;;;9.07;2.13;;;;;;;20.33;66.84;100719.41;2039297;29;20147;-76
2022/09/19 04:26:09;;;;;;;7.60;2.15;;;;;;;20.42;67.03;100720.03;2038020;29;20898;-77
2022/09/19 04:27:35;;;;;;;7.07;2.10;;;;;;;20.53;67.05;100728.69;2037086;29;20048;-76
2022/09/19 04:28:57;;;;;;;10.98;2.40;;;;;;;20.65;66.95;100731.06;2039153;29;20043;-76
2022/09/19 04:30:22;;;;;;;7.03;1.98;;;;;;;20.78;67.13;100728.03;2036356;29;20047;-76
2022/09/19 04:31:45;;;;;;;6.00;2.20;;;;;;;20.89;66.94;100734.00;2034581;29;20063;-76
2022/09/19 04:33:10;;;;;;;5.20;1.92;;;;;;;21.01;66.92;100736.34;2034319;29;20067;-76
2022/09/19 04:34:34;;;;;;;11.27;2.67;;;;;;;21.12;66.63;100739.63;2036983;29;20056;-76
2022/09/19 04:36:00;;;;;;;7.40;2.17;;;;;;;21.24;66.41;100733.94;2034057;29;20142;-75
2022/09/19 04:37:24;;;;;;;13.02;5.18;;;;;;;21.34;66.46;100734.53;2051168;28;20157;-76
2022/09/19 04:38:56;;;;;;;20.65;9.63;;;;;;;21.46;66.04;100736.88;2039111;29;20650;-76
2022/09/19 04:40:22;;;;;;;26.33;11.70;;;;;;;21.57;65.54;100744.63;2037326;29;20139;-76
2022/09/19 04:41:45;;;;;;;;;;;;;;;21.63;65.37;100742.63;2034708;29;20068;-76
2022/09/19 04:43:08;;;;;;;37.88;18.17;;;;;;;21.73;65.28;100743.22;2034372;29;19922;-76
2022/09/19 04:44:31;;;;;;;24.08;9.68;;;;;;;21.84;65.07;100741.09;2028668;29;20436;-76
2022/09/19 04:46:01;;;;;;;17.80;7.75;;;;;;;21.96;64.96;100751.50;2044286;29;20047;-76
2022/09/19 04:47:38;;;;;;;10.65;3.53;;;;;;;22.08;64.87;100755.59;2031553;29;20048;-74
2022/09/19 04:49:04;;;;;;;41.95;16.98;;;;;;;22.17;65.05;100745.44;2026318;29;20617;-74
2022/09/19 04:50:29;;;;;;;43.97;18.92;;;;;;;22.29;64.82;100736.09;2027751;29;20091;-74
2022/09/19 04:51:56;;;;;;;72.90;27.33;;;;;;;22.42;64.52;100750.91;2034851;29;20043;-76
2022/09/19 04:53:19;;;;;;;69.43;27.40;;;;;;;22.53;64.61;100747.81;2028915;29;20060;-75
2022/09/19 04:54:45;;;;;;;43.08;17.77;;;;;;;22.65;64.49;100748.28;2034456;29;20060;-75
2022/09/19 04:56:08;;;;;;;36.47;14.15;;;;;;;22.80;64.45;100749.63;2039122;29;20118;-75
2022/09/19 04:57:33;;;;;;;23.95;9.90;;;;;;;22.91;64.09;100754.59;2039232;29;20044;-75
2022/09/19 04:59:03;;;;;;;17.10;5.18;;;;;;;22.99;64.18;100748.03;2030974;29;20181;-75
2022/09/19 05:00:39;;;;;;;15.57;5.28;;;;;;;23.09;63.95;100745.00;2036436;29;20642;-75
2022/09/19 05:02:10;;;;;;;23.33;10.00;;;;;;;23.23;63.51;100734.63;2031260;29;20055;-75
2022/09/19 05:03:33;;;;;;;18.33;7.68;;;;;;;23.33;62.75;100736.91;2036553;29;20146;-75
2022/09/19 05:04:56;;;;;;;21.75;7.38;;;;;;;23.44;62.72;100733.78;2031168;29;20111;-76
2022/09/19 05:06:19;;;;;;;18.45;6.90;;;;;;;23.58;62.36;100742.28;2028824;29;20564;-76
2022/09/19 05:07:42;;;;;;;21.88;7.15;;;;;;;23.71;61.72;100735.47;2036243;29;20137;-76
2022/09/19 05:09:05;;;;;;;15.10;5.68;;;;;;;23.81;61.33;100736.88;2031073;29;20044;-77
2022/09/19 05:10:47;;;;;;;19.55;5.35;;;;;;;23.97;61.05;100742.53;2045558;29;20082;-76
2022/09/19 05:12:10;;;;;;;21.70;6.88;;;;;;;24.08;60.99;100737.59;2031212;29;20036;-76
2022/09/19 05:13:39;;;;;;;16.52;5.35;;;;;;;24.20;60.19;100736.25;2035261;29;20162;-76
2022/09/19 05:15:03;;;;;;;9.18;3.00;;;;;;;24.31;59.53;100749.28;2028738;29;20064;-76
2022/09/19 05:16:26;;;;;;;6.28;1.75;;;;;;;24.41;59.15;100742.59;2026433;29;20048;-76
2022/09/19 05:17:55;;;;;;;9.40;2.17;;;;;;;24.50;58.48;100744.88;2029330;29;20275;-76
2022/09/19 05:19:21;;;;;;;6.57;1.60;;;;;;;24.59;58.48;100742.69;2034065;29;20103;-76
2022/09/19 05:20:44;;;;;;;10.00;2.05;;;;;;;24.70;58.50;100744.91;2029333;29;20048;-76
2022/09/19 05:22:06;;;;;;;8.68;2.22;;;;;;;24.81;58.45;100739.91;2033709;29;20480;-76
2022/09/19 05:23:32;;;;;;;10.10;4.45;;;;;;;24.93;58.16;100743.97;2031287;29;20728;-76
2022/09/19 05:24:55;;;;;;;14.98;5.60;;;;;;;25.03;58.27;100745.31;2034582;29;20043;-77
2022/09/19 05:26:17;;;;;;;16.38;7.43;;;;;;;25.17;57.92;100748.28;2031079;29;20143;-76
2022/09/19 05:27:42;;;;;;;28.60;13.75;;;;;;;25.31;57.68;100745.81;2035312;29;20646;-76
2022/09/19 05:29:05;;;;;;;;;;;;;;;25.42;57.48;100748.91;2031534;29;20052;-77
2022/09/19 05:30:38;;;;;;;30.02;11.52;;;;;;;25.55;57.81;100746.50;2031341;29;20017;-76
2022/09/19 05:32:04;;;;;;;24.27;11.10;;;;;;;25.68;57.52;100746.84;2044208;29;20055;-77
2022/09/19 05:33:36;;;;;;;16.90;6.32;;;;;;;25.88;56.65;100749.50;2040524;29;20051;-77
2022/09/19 05:35:00;;;;;;;14.80;4.55;;;;;;;26.00;55.98;100746.19;2030280;29;20059;-77
2022/09/19 05:36:47;;;;;;;13.63;3.33;;;;;;;26.15;55.33;100750.00;2040377;29;20052;-77
2022/09/19 05:38:15;;;;;;;15.10;2.80;;;;;;;26.27;55.03;100744.00;2047363;29;20055;-77
2022/09/19 05:39:48;;;;;;;8.88;2.78;;;;;;;26.42;54.96;100753.19;2040554;29;20055;-77
2022/09/19 05:41:42;;;;;;;12.40;2.85;;;;;;;26.60;54.94;100752.25;2038319;29;20099;-77
2022/09/19 05:43:16;;;;;;;8.23;1.52;;;;;;;26.77;54.54;100746.88;2040854;29;20528;-75
2022/09/19 05:44:39;;;;;;;9.38;2.78;;;;;;;26.91;54.45;100749.75;2037672;29;20054;-75
2022/09/19 05:46:02;;;;;;;10.32;1.92;;;;;;;27.07;54.19;100752.53;2035566;29;20649;-74
2022/09/19 05:47:25;;;;;;;7.05;1.75;;;;;;;27.22;53.93;100745.44;2035055;29;20043;-74
2022/09/19 05:48:48;;;;;;;5.03;1.27;;;;;;;27.42;53.41;100747.06;2043330;29;20636;-75
2022/09/19 05:50:12;;;;;;;6.47;1.60;;;;;;;27.58;52.53;100748.00;2037606;29;20059;-74
2022/09/19 05:51:35;;;;;;;5.38;1.75;;;;;;;27.76;52.02;100749.72;2035734;29;20154;-74
2022/09/19 05:54:36;;;;;;;6.57;1.33;;;;;;;28.14;50.84;100747.59;2040124;29;20051;-74
2022/09/19 05:56:18;;;;;;;9.77;1.77;;;;;;;28.34;50.11;100755.47;2039552;29;20106;-74
2022/09/19 05:57:50;;;;;;;8.20;1.98;;;;;;;28.52;49.75;100759.81;2052030;28;20066;-74
2022/09/19 05:59:13;;;;;;;6.97;1.70;;;;;;;28.68;48.98;100759.78;2040216;29;20460;-74
2022/09/19 06:00:37;;;;;;;7.80;1.55;;;;;;;28.84;48.39;100757.03;2038131;29;20401;-74
2022/09/19 06:02:01;;;;;;;8.43;1.40;;;;;;;28.97;47.59;100754.44;2035129;29;20040;-74
2022/09/19 06:03:38;;;;;;;10.10;2.10;;;;;;;29.11;47.81;100754.50;2038303;29;20126;-74
2022/09/19 06:05:02;;;;;;;9.57;2.05;;;;;;;29.23;47.40;100757.31;2036121;29;20040;-74
2022/09/19 06:06:27;;;;;;;9.90;2.03;;;;;;;29.37;47.27;100742.03;2035522;29;20059;-75
2022/09/19 06:07:49;;;;;;;10.88;1.65;;;;;;;29.52;46.84;100752.81;2034901;29;20126;-76
2022/09/19 06:09:11;;;;;;;5.68;1.60;;;;;;;29.65;46.47;100756.53;2034893;29;20154;-76
2022/09/19 06:10:38;;;;;;;9.40;1.50;;;;;;;29.83;45.97;100754.44;2043278;29;20047;-76
2022/09/19 06:12:03;;;;;;;6.15;1.50;;;;;;;30.01;45.62;100757.84;2037707;29;20138;-76
2022/09/19 06:14:13;;;;;;;5.30;1.40;;;;;;;30.17;44.70;100761.34;2038064;29;20098;-75
2022/09/19 06:15:10;;;;;;;6.47;1.63;;;;;;;30.33;44.24;100764.78;2039803;29;20035;-76
2022/09/19 06:16:32;;;;;;;6.88;1.25;;;;;;;30.42;44.05;100766.03;2034756;29;20046;-75
2022/09/19 06:18:30;;;;;;;15.38;2.10;;;;;;;30.44;43.57;100769.53;2047343;29;20055;-76
2022/09/19 06:19:59;;;;;;;4.82;1.48;;;;;;;30.43;43.80;100771.38;2039733;29;20078;-76
2022/09/19 06:21:42;;;;;;;9.35;2.13;;;;;;;30.48;44.13;100766.50;2048006;29;20051;-76
2022/09/19 06:23:06;;;;;;;9.25;1.52;;;;;;;30.62;43.64;100765.59;2037616;29;20046;-75
2022/09/19 06:24:29;;;;;;;7.03;1.45;;;;;;;30.74;43.17;100774.78;2043017;29;20047;-76
2022/09/19 06:25:51;;;;;;;7.47;1.30;;;;;;;30.80;42.67;100774.38;2037714;29;20047;-75
2022/09/19 06:27:15;;;;;;;7.90;1.50;;;;;;;30.83;42.54;100771.44;2042883;29;20043;-75
2022/09/19 06:28:41;;;;;;;8.02;1.70;;;;;;;30.85;42.37;100780.41;2037560;29;20046;-75
2022/09/19 06:30:05;;;;;;;9.13;1.70;;;;;;;30.94;42.61;100778.88;2035680;29;20930;-76
2022/09/19 06:31:47;;;;;;;10.48;1.95;;;;;;;31.08;42.26;100773.38;2047713;28;20150;-76
2022/09/19 06:33:14;;;;;;;8.35;1.67;;;;;;;31.17;42.14;100770.03;2045319;29;20524;-75
2022/09/19 06:34:50;;;;;;;5.93;1.27;;;;;;;31.33;41.94;100775.25;2038839;29;20082;-76
2022/09/19 06:36:13;;;;;;;8.18;1.63;;;;;;;31.50;41.37;100777.69;2035064;29;20148;-75
2022/09/19 06:37:36;;;;;;;6.60;1.48;;;;;;;31.64;41.16;100783.03;2045468;29;20142;-76
2022/09/19 06:39:01;;;;;;;9.63;1.50;;;;;;;31.78;40.38;100782.03;2037099;29;20510;-76
2022/09/19 06:40:46;;;;;;;5.50;1.30;;;;;;;31.97;39.74;100783.31;2047810;29;20672;-75
2022/09/19 06:42:36;;;;;;;5.63;1.95;;;;;;;32.14;39.11;100787.59;2042794;29;20130;-75
2022/09/19 06:44:17;;;;;;;6.40;1.60;;;;;;;32.32;38.44;100780.75;2047322;29;20057;-76
2022/09/19 06:46:01;;;;;;;7.05;1.55;;;;;;;32.51;38.04;100787.56;2031319;29;20587;-76
2022/09/19 06:47:42;;;;;;;7.43;1.50;;;;;;;32.69;37.47;100794.44;2047301;29;20089;-75
2022/09/19 06:49:12;;;;;;;11.73;1.73;;;;;;;32.65;37.21;100792.88;2039827;29;20610;-75
2022/09/19 06:50:47;;;;;;;6.50;1.40;;;;;;;32.61;37.47;100794.97;2046659;29;20051;-76
2022/09/19 06:52:10;;;;;;;7.00;1.60;;;;;;;32.72;37.00;100797.78;2039685;29;20475;-76